sensor_id;sensor_type;location;lat;lon;timestamp;pressure;altitude;pressure_sealevel;temperature;humidity
42169;BME280;27838;43.858;25.974;2022-11-20T00:01:23;100497.22;;;15.71;69.90
42169;BME280;27838;43.858;25.974;2022-11-20T00:03:54;100505.06;;;15.73;70.08
42169;BME280;27838;43.858;25.974;2022-11-20T00:06:22;100494.50;;;15.74;69.78
42169;BME280;27838;43.858;25.974;2022-11-20T00:08:49;100485.66;;;15.80;69.91
42169;BME280;27838;43.858;25.974;2022-11-20T00:11:20;100497.84;;;15.82;69.81
42169;BME280;27838;43.858;25.974;2022-11-20T00:13:48;100483.94;;;15.77;70.46
42169;BME280;27838;43.858;25.974;2022-11-20T00:16:18;100506.78;;;15.75;69.98
42169;BME280;27838;43.858;25.974;2022-11-20T00:18:46;100499.81;;;15.73;70.27
42169;BME280;27838;43.858;25.974;2022-11-20T00:21:20;100503.31;;;15.75;70.23
42169;BME280;27838;43.858;25.974;2022-11-20T00:23:48;100504.97;;;15.77;70.34
42169;BME280;27838;43.858;25.974;2022-11-20T00:26:17;100513.59;;;15.82;70.26
42169;BME280;27838;43.858;25.974;2022-11-20T00:28:48;100505.63;;;15.87;70.23
42169;BME280;27838;43.858;25.974;2022-11-20T00:31:16;100501.25;;;15.86;69.83
42169;BME280;27838;43.858;25.974;2022-11-20T00:33:43;100507.28;;;15.90;69.98
42169;BME280;27838;43.858;25.974;2022-11-20T00:36:21;100495.03;;;15.90;69.84
42169;BME280;27838;43.858;25.974;2022-11-20T00:38:52;100507.25;;;15.91;70.06
42169;BME280;27838;43.858;25.974;2022-11-20T00:41:19;100497.59;;;15.92;70.00
42169;BME280;27838;43.858;25.974;2022-11-20T00:43:46;100505.56;;;15.90;70.12
42169;BME280;27838;43.858;25.974;2022-11-20T00:46:15;100502.91;;;15.90;70.34
42169;BME280;27838;43.858;25.974;2022-11-20T00:48:42;100501.13;;;15.92;70.01
42169;BME280;27838;43.858;25.974;2022-11-20T00:51:11;100496.78;;;15.90;70.42
42169;BME280;27838;43.858;25.974;2022-11-20T00:53:38;100502.09;;;15.86;70.46
42169;BME280;27838;43.858;25.974;2022-11-20T00:56:07;100504.81;;;15.85;70.58
42169;BME280;27838;43.858;25.974;2022-11-20T00:58:36;100500.44;;;15.84;70.62
42169;BME280;27838;43.858;25.974;2022-11-20T01:01:11;100482.94;;;15.83;71.10
42169;BME280;27838;43.858;25.974;2022-11-20T01:03:40;100482.13;;;15.81;71.22
42169;BME280;27838;43.858;25.974;2022-11-20T01:06:20;100465.53;;;15.79;70.92
42169;BME280;27838;43.858;25.974;2022-11-20T01:08:47;100453.41;;;15.72;71.49
42169;BME280;27838;43.858;25.974;2022-11-20T01:11:19;100461.22;;;15.76;71.29
42169;BME280;27838;43.858;25.974;2022-11-20T01:13:48;100448.22;;;15.68;71.72
42169;BME280;27838;43.858;25.974;2022-11-20T01:16:20;100449.19;;;15.66;71.87
42169;BME280;27838;43.858;25.974;2022-11-20T01:18:51;100438.81;;;15.60;71.77
42169;BME280;27838;43.858;25.974;2022-11-20T01:21:24;100442.38;;;15.59;72.25
42169;BME280;27838;43.858;25.974;2022-11-20T01:23:52;100440.66;;;15.56;72.18
42169;BME280;27838;43.858;25.974;2022-11-20T01:26:21;100444.16;;;15.57;72.42
42169;BME280;27838;43.858;25.974;2022-11-20T01:28:48;100452.00;;;15.58;72.47
42169;BME280;27838;43.858;25.974;2022-11-20T01:31:24;100419.97;;;15.44;72.46
42169;BME280;27838;43.858;25.974;2022-11-20T01:33:53;100447.69;;;15.56;72.42
42169;BME280;27838;43.858;25.974;2022-11-20T01:36:21;100434.72;;;15.48;72.55
42169;BME280;27838;43.858;25.974;2022-11-20T01:38:51;100438.09;;;15.53;72.69
42169;BME280;27838;43.858;25.974;2022-11-20T01:41:18;100436.22;;;15.58;72.61
42169;BME280;27838;43.858;25.974;2022-11-20T01:43:59;100429.28;;;15.57;72.41
42169;BME280;27838;43.858;25.974;2022-11-20T01:46:26;100415.22;;;15.58;72.22
42169;BME280;27838;43.858;25.974;2022-11-20T01:49:00;100422.13;;;15.62;72.21
42169;BME280;27838;43.858;25.974;2022-11-20T01:51:48;100431.72;;;15.63;71.66
42169;BME280;27838;43.858;25.974;2022-11-20T01:54:19;100435.38;;;15.58;71.93
42169;BME280;27838;43.858;25.974;2022-11-20T01:56:48;100454.50;;;15.63;72.15
42169;BME280;27838;43.858;25.974;2022-11-20T01:59:18;100444.22;;;15.55;71.91
42169;BME280;27838;43.858;25.974;2022-11-20T02:01:46;100445.03;;;15.57;71.46
42169;BME280;27838;43.858;25.974;2022-11-20T02:04:13;100446.84;;;15.55;70.97
42169;BME280;27838;43.858;25.974;2022-11-20T02:06:48;100442.50;;;15.53;71.08
42169;BME280;27838;43.858;25.974;2022-11-20T02:09:16;100430.34;;;15.50;70.72
42169;BME280;27838;43.858;25.974;2022-11-20T02:11:42;100437.47;;;15.45;70.55
42169;BME280;27838;43.858;25.974;2022-11-20T02:14:09;100429.66;;;15.42;70.18
42169;BME280;27838;43.858;25.974;2022-11-20T02:16:37;100433.16;;;15.41;70.34
42169;BME280;27838;43.858;25.974;2022-11-20T02:19:12;100422.75;;;15.38;70.12
42169;BME280;27838;43.858;25.974;2022-11-20T02:22:02;100427.28;;;15.31;70.30
42169;BME280;27838;43.858;25.974;2022-11-20T02:24:28;100417.56;;;15.35;70.35
42169;BME280;27838;43.858;25.974;2022-11-20T02:27:10;100423.72;;;15.34;69.81
42169;BME280;27838;43.858;25.974;2022-11-20T02:29:51;100421.03;;;15.37;70.02
42169;BME280;27838;43.858;25.974;2022-11-20T02:32:27;100416.66;;;15.36;70.09
42169;BME280;27838;43.858;25.974;2022-11-20T02:34:54;100417.53;;;15.36;69.99
42169;BME280;27838;43.858;25.974;2022-11-20T02:37:21;100410.53;;;15.35;69.61
42169;BME280;27838;43.858;25.974;2022-11-20T02:39:50;100407.13;;;15.32;69.83
42169;BME280;27838;43.858;25.974;2022-11-20T02:42:18;100397.78;;;15.20;68.93
42169;BME280;27838;43.858;25.974;2022-11-20T02:44:45;100401.53;;;15.09;68.79
42169;BME280;27838;43.858;25.974;2022-11-20T02:47:11;100406.09;;;15.03;69.16
42169;BME280;27838;43.858;25.974;2022-11-20T02:49:38;100400.25;;;14.90;68.77
42169;BME280;27838;43.858;25.974;2022-11-20T02:52:04;100408.00;;;14.96;68.43
42169;BME280;27838;43.858;25.974;2022-11-20T02:54:31;100397.63;;;14.90;68.51
42169;BME280;27838;43.858;25.974;2022-11-20T02:56:57;100380.53;;;14.72;68.31
42169;BME280;27838;43.858;25.974;2022-11-20T02:59:24;100386.91;;;14.60;68.88
42169;BME280;27838;43.858;25.974;2022-11-20T03:01:50;100407.94;;;14.57;69.02
42169;BME280;27838;43.858;25.974;2022-11-20T03:04:17;100396.72;;;14.50;68.63
42169;BME280;27838;43.858;25.974;2022-11-20T03:06:43;100393.34;;;14.45;68.57
42169;BME280;27838;43.858;25.974;2022-11-20T03:09:10;100396.91;;;14.41;69.16
42169;BME280;27838;43.858;25.974;2022-11-20T03:11:36;100395.25;;;14.37;68.74
42169;BME280;27838;43.858;25.974;2022-11-20T03:14:04;100381.31;;;14.35;68.49
42169;BME280;27838;43.858;25.974;2022-11-20T03:16:31;100392.59;;;14.39;68.34
42169;BME280;27838;43.858;25.974;2022-11-20T03:18:59;100383.13;;;14.33;67.76
42169;BME280;27838;43.858;25.974;2022-11-20T03:21:26;100388.38;;;14.31;67.27
42169;BME280;27838;43.858;25.974;2022-11-20T03:23:53;100395.38;;;14.31;67.35
42169;BME280;27838;43.858;25.974;2022-11-20T03:26:24;100401.63;;;14.24;66.70
42169;BME280;27838;43.858;25.974;2022-11-20T03:28:53;100406.00;;;14.25;67.21
42169;BME280;27838;43.858;25.974;2022-11-20T03:31:26;100395.56;;;14.22;66.47
42169;BME280;27838;43.858;25.974;2022-11-20T03:33:53;100405.31;;;14.13;66.13
42169;BME280;27838;43.858;25.974;2022-11-20T03:36:20;100415.97;;;14.06;66.85
42169;BME280;27838;43.858;25.974;2022-11-20T03:38:47;100418.75;;;13.98;66.70
42169;BME280;27838;43.858;25.974;2022-11-20T03:41:17;100419.69;;;13.94;66.81
42169;BME280;27838;43.858;25.974;2022-11-20T03:43:48;100414.56;;;13.88;66.68
42169;BME280;27838;43.858;25.974;2022-11-20T03:46:15;100409.41;;;13.83;66.59
42169;BME280;27838;43.858;25.974;2022-11-20T03:48:41;100415.47;;;13.85;66.42
42169;BME280;27838;43.858;25.974;2022-11-20T03:51:22;100419.00;;;13.84;66.38
42169;BME280;27838;43.858;25.974;2022-11-20T03:53:51;100422.56;;;13.80;66.68
42169;BME280;27838;43.858;25.974;2022-11-20T03:56:20;100426.94;;;13.79;66.39
42169;BME280;27838;43.858;25.974;2022-11-20T03:58:48;100418.50;;;13.64;66.28
42169;BME280;27838;43.858;25.974;2022-11-20T04:01:17;100431.66;;;13.59;66.51
42169;BME280;27838;43.858;25.974;2022-11-20T04:03:44;100439.50;;;13.60;66.38
42169;BME280;27838;43.858;25.974;2022-11-20T04:06:20;100443.94;;;13.55;66.47
42169;BME280;27838;43.858;25.974;2022-11-20T04:08:47;100427.53;;;13.46;66.23
42169;BME280;27838;43.858;25.974;2022-11-20T04:11:28;100437.31;;;13.34;66.38
42169;BME280;27838;43.858;25.974;2022-11-20T04:13:57;100450.41;;;13.33;66.45
42169;BME280;27838;43.858;25.974;2022-11-20T04:16:25;100449.69;;;13.23;66.31
42169;BME280;27838;43.858;25.974;2022-11-20T04:18:54;100457.53;;;13.21;66.86
42169;BME280;27838;43.858;25.974;2022-11-20T04:21:21;100453.34;;;13.10;66.85
42169;BME280;27838;43.858;25.974;2022-11-20T04:23:49;100463.81;;;13.10;67.08
42169;BME280;27838;43.858;25.974;2022-11-20T04:26:18;100462.97;;;13.09;67.00
42169;BME280;27838;43.858;25.974;2022-11-20T04:28:45;100454.34;;;13.02;67.25
42169;BME280;27838;43.858;25.974;2022-11-20T04:31:17;100458.75;;;12.97;67.36
42169;BME280;27838;43.858;25.974;2022-11-20T04:33:43;100458.06;;;12.86;67.67
42169;BME280;27838;43.858;25.974;2022-11-20T04:36:15;100447.63;;;12.83;67.22
42169;BME280;27838;43.858;25.974;2022-11-20T04:38:43;100449.44;;;12.78;67.70
42169;BME280;27838;43.858;25.974;2022-11-20T04:41:17;100432.00;;;12.77;67.77
42169;BME280;27838;43.858;25.974;2022-11-20T04:43:51;100431.06;;;12.82;67.27
42169;BME280;27838;43.858;25.974;2022-11-20T04:46:20;100439.75;;;12.86;66.95
42169;BME280;27838;43.858;25.974;2022-11-20T04:48:47;100437.22;;;12.78;67.06
42169;BME280;27838;43.858;25.974;2022-11-20T04:51:13;100440.81;;;12.71;66.89
42169;BME280;27838;43.858;25.974;2022-11-20T04:53:41;100442.63;;;12.64;67.38
42169;BME280;27838;43.858;25.974;2022-11-20T04:56:09;100442.66;;;12.63;67.45
42169;BME280;27838;43.858;25.974;2022-11-20T04:58:37;100436.59;;;12.59;67.85
42169;BME280;27838;43.858;25.974;2022-11-20T05:01:24;100444.47;;;12.58;67.39
42169;BME280;27838;43.858;25.974;2022-11-20T05:03:51;100431.41;;;12.56;67.54
42169;BME280;27838;43.858;25.974;2022-11-20T05:06:20;100443.47;;;12.66;66.92
42169;BME280;27838;43.858;25.974;2022-11-20T05:08:47;100459.16;;;12.68;66.79
42169;BME280;27838;43.858;25.974;2022-11-20T05:11:20;100445.22;;;12.68;67.11
42169;BME280;27838;43.858;25.974;2022-11-20T05:13:48;100449.66;;;12.59;67.10
42169;BME280;27838;43.858;25.974;2022-11-20T05:16:25;100445.34;;;12.57;66.79
42169;BME280;27838;43.858;25.974;2022-11-20T05:18:53;100442.75;;;12.57;66.49
42169;BME280;27838;43.858;25.974;2022-11-20T05:21:20;100440.97;;;12.59;66.83
42169;BME280;27838;43.858;25.974;2022-11-20T05:23:47;100441.09;;;12.50;67.55
42169;BME280;27838;43.858;25.974;2022-11-20T05:26:19;100437.56;;;12.52;67.12
42169;BME280;27838;43.858;25.974;2022-11-20T05:28:48;100449.66;;;12.59;66.87
42169;BME280;27838;43.858;25.974;2022-11-20T05:31:17;100461.84;;;12.63;66.54
42169;BME280;27838;43.858;25.974;2022-11-20T05:33:45;100460.94;;;12.64;66.38
42169;BME280;27838;43.858;25.974;2022-11-20T05:36:13;100476.59;;;12.68;66.52
42169;BME280;27838;43.858;25.974;2022-11-20T05:38:41;100521.91;;;12.66;66.51
42169;BME280;27838;43.858;25.974;2022-11-20T05:41:12;100555.19;;;12.55;66.66
42169;BME280;27838;43.858;25.974;2022-11-20T05:43:40;100538.88;;;12.30;67.63
42169;BME280;27838;43.858;25.974;2022-11-20T05:46:09;100532.78;;;12.28;67.81
42169;BME280;27838;43.858;25.974;2022-11-20T05:48:37;100533.59;;;12.36;67.94
42169;BME280;27838;43.858;25.974;2022-11-20T05:51:06;100526.56;;;12.41;68.20
42169;BME280;27838;43.858;25.974;2022-11-20T05:53:34;100523.09;;;12.41;67.86
42169;BME280;27838;43.858;25.974;2022-11-20T05:56:06;100524.75;;;12.50;67.24
42169;BME280;27838;43.858;25.974;2022-11-20T05:58:33;100542.97;;;12.54;67.02
42169;BME280;27838;43.858;25.974;2022-11-20T06:01:07;100548.16;;;12.60;66.09
42169;BME280;27838;43.858;25.974;2022-11-20T06:03:34;100558.59;;;12.63;65.69
42169;BME280;27838;43.858;25.974;2022-11-20T06:06:01;100569.91;;;12.64;66.12
42169;BME280;27838;43.858;25.974;2022-11-20T06:08:28;100570.69;;;12.71;65.13
42169;BME280;27838;43.858;25.974;2022-11-20T06:10:54;100555.88;;;12.70;65.65
42169;BME280;27838;43.858;25.974;2022-11-20T06:13:21;100566.44;;;12.63;65.25
42169;BME280;27838;43.858;25.974;2022-11-20T06:15:51;100581.34;;;12.52;64.60
42169;BME280;27838;43.858;25.974;2022-11-20T06:18:19;100579.66;;;12.50;65.21
42169;BME280;27838;43.858;25.974;2022-11-20T06:20:46;100567.44;;;12.49;64.91
42169;BME280;27838;43.858;25.974;2022-11-20T06:23:13;100590.03;;;12.54;65.17
42169;BME280;27838;43.858;25.974;2022-11-20T06:25:40;100616.28;;;12.42;64.89
42169;BME280;27838;43.858;25.974;2022-11-20T06:28:08;100625.03;;;12.41;65.92
42169;BME280;27838;43.858;25.974;2022-11-20T06:30:35;100622.47;;;12.33;65.13
42169;BME280;27838;43.858;25.974;2022-11-20T06:33:02;100615.47;;;12.37;65.41
42169;BME280;27838;43.858;25.974;2022-11-20T06:35:28;100610.34;;;12.27;65.25
42169;BME280;27838;43.858;25.974;2022-11-20T06:37:55;100636.53;;;12.20;65.86
42169;BME280;27838;43.858;25.974;2022-11-20T06:40:22;100644.41;;;12.15;65.82
42169;BME280;27838;43.858;25.974;2022-11-20T06:42:48;100653.09;;;12.17;66.33
42169;BME280;27838;43.858;25.974;2022-11-20T06:45:15;100648.69;;;12.25;66.29
42169;BME280;27838;43.858;25.974;2022-11-20T06:47:41;100650.34;;;12.34;66.16
42169;BME280;27838;43.858;25.974;2022-11-20T06:50:08;100656.50;;;12.28;64.97
42169;BME280;27838;43.858;25.974;2022-11-20T06:52:35;100686.03;;;12.37;64.75
42169;BME280;27838;43.858;25.974;2022-11-20T06:55:01;100715.72;;;12.30;64.34
42169;BME280;27838;43.858;25.974;2022-11-20T06:57:28;100704.50;;;12.14;64.84
42169;BME280;27838;43.858;25.974;2022-11-20T06:59:54;100714.94;;;12.20;64.55
42169;BME280;27838;43.858;25.974;2022-11-20T07:02:21;100733.19;;;12.24;64.32
42169;BME280;27838;43.858;25.974;2022-11-20T07:04:47;100738.47;;;12.17;64.57
42169;BME280;27838;43.858;25.974;2022-11-20T07:07:14;100747.25;;;12.05;64.91
42169;BME280;27838;43.858;25.974;2022-11-20T07:09:40;100742.91;;;12.01;64.79
42169;BME280;27838;43.858;25.974;2022-11-20T07:12:07;100741.16;;;12.03;64.79
42169;BME280;27838;43.858;25.974;2022-11-20T07:14:34;100734.16;;;12.09;64.63
42169;BME280;27838;43.858;25.974;2022-11-20T07:17:01;100717.56;;;12.15;64.42
42169;BME280;27838;43.858;25.974;2022-11-20T07:19:27;100712.31;;;12.20;64.35
42169;BME280;27838;43.858;25.974;2022-11-20T07:21:54;100704.47;;;12.21;64.22
42169;BME280;27838;43.858;25.974;2022-11-20T07:24:20;100700.09;;;12.23;63.78
42169;BME280;27838;43.858;25.974;2022-11-20T07:26:47;100707.94;;;12.25;64.49
42169;BME280;27838;43.858;25.974;2022-11-20T07:29:14;100687.03;;;12.25;64.56
42169;BME280;27838;43.858;25.974;2022-11-20T07:31:42;100698.34;;;12.25;63.93
42169;BME280;27838;43.858;25.974;2022-11-20T07:34:08;100712.22;;;12.34;64.22
42169;BME280;27838;43.858;25.974;2022-11-20T07:36:35;100720.00;;;12.38;63.53
42169;BME280;27838;43.858;25.974;2022-11-20T07:39:02;100720.84;;;12.45;64.03
42169;BME280;27838;43.858;25.974;2022-11-20T07:41:28;100709.53;;;12.44;63.59
42169;BME280;27838;43.858;25.974;2022-11-20T07:43:55;100712.97;;;12.50;63.32
42169;BME280;27838;43.858;25.974;2022-11-20T07:46:21;100718.22;;;12.43;63.36
42169;BME280;27838;43.858;25.974;2022-11-20T07:48:48;100725.16;;;12.51;63.71
42169;BME280;27838;43.858;25.974;2022-11-20T07:51:14;100719.03;;;12.53;63.79
42169;BME280;27838;43.858;25.974;2022-11-20T07:53:41;100728.59;;;12.54;63.23
42169;BME280;27838;43.858;25.974;2022-11-20T07:56:07;100726.00;;;12.54;63.56
42169;BME280;27838;43.858;25.974;2022-11-20T07:58:34;100716.44;;;12.52;63.23
42169;BME280;27838;43.858;25.974;2022-11-20T08:01:06;100717.47;;;12.32;64.07
42169;BME280;27838;43.858;25.974;2022-11-20T08:03:33;100718.22;;;12.43;64.22
42169;BME280;27838;43.858;25.974;2022-11-20T08:06:02;100700.78;;;12.47;64.00
42169;BME280;27838;43.858;25.974;2022-11-20T08:08:29;100715.56;;;12.51;64.19
42169;BME280;27838;43.858;25.974;2022-11-20T08:10:57;100718.16;;;12.53;64.11
42169;BME280;27838;43.858;25.974;2022-11-20T08:13:45;100705.06;;;12.54;63.88
42169;BME280;27838;43.858;25.974;2022-11-20T08:16:29;100699.00;;;12.49;63.96
42169;BME280;27838;43.858;25.974;2022-11-20T08:18:55;100706.06;;;12.41;63.90
42169;BME280;27838;43.858;25.974;2022-11-20T08:21:22;100684.31;;;12.36;64.39
42169;BME280;27838;43.858;25.974;2022-11-20T08:23:49;100676.59;;;12.20;65.13
42169;BME280;27838;43.858;25.974;2022-11-20T08:26:15;100673.13;;;12.18;65.52
42169;BME280;27838;43.858;25.974;2022-11-20T08:28:42;100670.44;;;12.27;65.13
42169;BME280;27838;43.858;25.974;2022-11-20T08:31:09;100680.13;;;12.15;65.50
42169;BME280;27838;43.858;25.974;2022-11-20T08:33:35;100684.53;;;12.05;65.81
42169;BME280;27838;43.858;25.974;2022-11-20T08:36:03;100687.28;;;11.82;66.78
42169;BME280;27838;43.858;25.974;2022-11-20T08:38:30;100681.16;;;11.84;66.92
42169;BME280;27838;43.858;25.974;2022-11-20T08:41:01;100683.72;;;11.97;66.64
42169;BME280;27838;43.858;25.974;2022-11-20T08:43:46;100700.19;;;12.08;66.44
42169;BME280;27838;43.858;25.974;2022-11-20T08:46:12;100690.59;;;12.15;65.79
42169;BME280;27838;43.858;25.974;2022-11-20T08:48:39;100704.41;;;12.29;65.62
42169;BME280;27838;43.858;25.974;2022-11-20T08:51:05;100715.81;;;12.17;65.87
42169;BME280;27838;43.858;25.974;2022-11-20T08:53:32;100706.25;;;12.15;65.93
42169;BME280;27838;43.858;25.974;2022-11-20T08:55:58;100707.97;;;12.20;66.09
42169;BME280;27838;43.858;25.974;2022-11-20T08:58:25;100700.09;;;12.23;65.89
42169;BME280;27838;43.858;25.974;2022-11-20T09:00:52;100679.09;;;12.36;65.43
42169;BME280;27838;43.858;25.974;2022-11-20T09:03:19;100699.94;;;12.42;65.19
42169;BME280;27838;43.858;25.974;2022-11-20T09:05:45;100702.56;;;12.42;65.15
42169;BME280;27838;43.858;25.974;2022-11-20T09:08:12;100691.22;;;12.46;65.36
42169;BME280;27838;43.858;25.974;2022-11-20T09:10:39;100679.88;;;12.47;65.38
42169;BME280;27838;43.858;25.974;2022-11-20T09:13:06;100683.19;;;12.63;65.04
42169;BME280;27838;43.858;25.974;2022-11-20T09:15:32;100679.69;;;12.67;64.60
42169;BME280;27838;43.858;25.974;2022-11-20T09:18:01;100679.59;;;12.76;64.40
42169;BME280;27838;43.858;25.974;2022-11-20T09:20:29;100684.75;;;12.85;64.21
42169;BME280;27838;43.858;25.974;2022-11-20T09:22:57;100679.47;;;12.90;63.76
42169;BME280;27838;43.858;25.974;2022-11-20T09:25:23;100684.66;;;12.95;63.32
42169;BME280;27838;43.858;25.974;2022-11-20T09:27:57;100673.25;;;13.00;64.34
42169;BME280;27838;43.858;25.974;2022-11-20T09:30:24;100661.03;;;13.02;63.65
42169;BME280;27838;43.858;25.974;2022-11-20T09:32:51;100660.16;;;13.03;63.29
42169;BME280;27838;43.858;25.974;2022-11-20T09:35:17;100663.53;;;13.10;63.24
42169;BME280;27838;43.858;25.974;2022-11-20T09:37:44;100656.50;;;13.15;63.33
42169;BME280;27838;43.858;25.974;2022-11-20T09:40:23;100653.84;;;13.20;62.97
42169;BME280;27838;43.858;25.974;2022-11-20T09:43:06;100655.53;;;13.24;63.05
42169;BME280;27838;43.858;25.974;2022-11-20T09:48:35;100648.50;;;13.32;63.05
42169;BME280;27838;43.858;25.974;2022-11-20T09:54:23;100637.97;;;13.37;63.57
42169;BME280;27838;43.858;25.974;2022-11-20T09:57:05;100631.78;;;13.43;62.89
42169;BME280;27838;43.858;25.974;2022-11-20T09:59:40;100622.97;;;13.48;63.24
42169;BME280;27838;43.858;25.974;2022-11-20T10:04:49;100602.69;;;13.63;63.25
42169;BME280;27838;43.858;25.974;2022-11-20T10:07:23;100588.69;;;13.67;62.81
42169;BME280;27838;43.858;25.974;2022-11-20T10:09:55;100590.38;;;13.69;62.84
42169;BME280;27838;43.858;25.974;2022-11-20T10:15:05;100591.06;;;13.82;62.41
42169;BME280;27838;43.858;25.974;2022-11-20T10:20:44;100620.72;;;13.84;62.35
42169;BME280;27838;43.858;25.974;2022-11-20T10:25:51;100636.44;;;13.86;63.42
42169;BME280;27838;43.858;25.974;2022-11-20T10:28:47;100649.53;;;13.86;63.84
42169;BME280;27838;43.858;25.974;2022-11-20T10:31:29;100663.56;;;13.80;63.64
42169;BME280;27838;43.858;25.974;2022-11-20T10:34:00;100656.63;;;13.76;63.66
42169;BME280;27838;43.858;25.974;2022-11-20T10:36:35;100653.19;;;13.72;64.31
42169;BME280;27838;43.858;25.974;2022-11-20T10:39:20;100668.06;;;13.70;64.66
42169;BME280;27838;43.858;25.974;2022-11-20T10:41:51;100661.13;;;13.66;64.51
42169;BME280;27838;43.858;25.974;2022-11-20T10:44:26;100665.53;;;13.64;64.82
42169;BME280;27838;43.858;25.974;2022-11-20T10:47:15;100655.06;;;13.63;65.18
42169;BME280;27838;43.858;25.974;2022-11-20T10:49:43;100661.25;;;13.57;65.16
42169;BME280;27838;43.858;25.974;2022-11-20T10:52:42;100665.53;;;13.63;65.24
42169;BME280;27838;43.858;25.974;2022-11-20T10:55:39;100663.06;;;13.53;65.01
42169;BME280;27838;43.858;25.974;2022-11-20T10:58:14;100665.72;;;13.49;65.15
42169;BME280;27838;43.858;25.974;2022-11-20T11:00:45;100659.59;;;13.51;64.93
42169;BME280;27838;43.858;25.974;2022-11-20T11:03:27;100658.75;;;13.51;65.07
42169;BME280;27838;43.858;25.974;2022-11-20T11:08:28;100664.81;;;13.53;65.16
42169;BME280;27838;43.858;25.974;2022-11-20T11:11:32;100671.75;;;13.54;65.22
42169;BME280;27838;43.858;25.974;2022-11-20T11:14:14;100665.66;;;13.55;65.25
42169;BME280;27838;43.858;25.974;2022-11-20T11:16:51;100660.31;;;13.61;64.65
42169;BME280;27838;43.858;25.974;2022-11-20T11:19:18;100644.59;;;13.63;64.24
42169;BME280;27838;43.858;25.974;2022-11-20T11:21:55;100651.41;;;13.74;64.10
42169;BME280;27838;43.858;25.974;2022-11-20T11:24:27;100666.19;;;13.80;64.18
42169;BME280;27838;43.858;25.974;2022-11-20T11:27:12;100671.41;;;13.82;64.47
42169;BME280;27838;43.858;25.974;2022-11-20T11:29:39;100665.19;;;13.87;65.08
42169;BME280;27838;43.858;25.974;2022-11-20T11:32:13;100663.50;;;13.85;64.41
42169;BME280;27838;43.858;25.974;2022-11-20T11:34:40;100663.53;;;13.83;64.09
42169;BME280;27838;43.858;25.974;2022-11-20T11:37:14;100658.25;;;13.85;64.67
42169;BME280;27838;43.858;25.974;2022-11-20T11:39:44;100655.63;;;13.85;64.61
42169;BME280;27838;43.858;25.974;2022-11-20T11:42:18;100663.47;;;13.88;65.17
42169;BME280;27838;43.858;25.974;2022-11-20T11:44:47;100655.50;;;13.92;65.03
42169;BME280;27838;43.858;25.974;2022-11-20T11:47:32;100663.34;;;13.94;64.54
42169;BME280;27838;43.858;25.974;2022-11-20T11:52:42;100673.91;;;13.91;64.96
42169;BME280;27838;43.858;25.974;2022-11-20T11:55:15;100673.84;;;13.92;64.31
42169;BME280;27838;43.858;25.974;2022-11-20T11:57:54;100682.63;;;13.91;64.58
42169;BME280;27838;43.858;25.974;2022-11-20T12:00:22;100684.44;;;13.88;64.45
42169;BME280;27838;43.858;25.974;2022-11-20T12:02:57;100686.97;;;13.92;64.75
42169;BME280;27838;43.858;25.974;2022-11-20T12:05:36;100666.06;;;13.89;65.16
42169;BME280;27838;43.858;25.974;2022-11-20T12:16:03;100681.69;;;13.94;65.12
42169;BME280;27838;43.858;25.974;2022-11-20T12:18:30;100667.78;;;13.90;64.86
42169;BME280;27838;43.858;25.974;2022-11-20T12:26:40;100689.78;;;13.78;65.32
42169;BME280;27838;43.858;25.974;2022-11-20T12:29:55;100706.41;;;13.77;65.21
42169;BME280;27838;43.858;25.974;2022-11-20T12:35:51;100685.44;;;13.76;65.96
42169;BME280;27838;43.858;25.974;2022-11-20T12:44:10;100701.22;;;13.73;66.89
42169;BME280;27838;43.858;25.974;2022-11-20T12:47:28;100690.75;;;13.70;67.43
42169;BME280;27838;43.858;25.974;2022-11-20T12:50:14;100675.94;;;13.70;66.65
42169;BME280;27838;43.858;25.974;2022-11-20T12:53:10;100668.06;;;13.72;66.76
42169;BME280;27838;43.858;25.974;2022-11-20T12:58:36;100648.75;;;13.79;66.17
42169;BME280;27838;43.858;25.974;2022-11-20T13:01:17;100646.03;;;13.84;66.11
42169;BME280;27838;43.858;25.974;2022-11-20T13:06:39;100645.22;;;13.80;66.57
42169;BME280;27838;43.858;25.974;2022-11-20T13:09:13;100646.09;;;13.81;65.63
42169;BME280;27838;43.858;25.974;2022-11-20T13:11:47;100635.66;;;13.77;66.22
42169;BME280;27838;43.858;25.974;2022-11-20T13:14:53;100639.16;;;13.76;66.70
42169;BME280;27838;43.858;25.974;2022-11-20T13:17:33;100638.28;;;13.77;66.14
42169;BME280;27838;43.858;25.974;2022-11-20T13:20:02;100633.91;;;13.76;66.73
42169;BME280;27838;43.858;25.974;2022-11-20T13:22:45;100606.06;;;13.72;66.70
42169;BME280;27838;43.858;25.974;2022-11-20T13:30:52;100602.59;;;13.70;67.01
42169;BME280;27838;43.858;25.974;2022-11-20T13:33:37;100593.94;;;13.65;67.63
42169;BME280;27838;43.858;25.974;2022-11-20T13:36:07;100578.28;;;13.60;67.42
42169;BME280;27838;43.858;25.974;2022-11-20T13:38:47;100596.53;;;13.67;67.16
42169;BME280;27838;43.858;25.974;2022-11-20T13:41:33;100592.16;;;13.67;67.25
42169;BME280;27838;43.858;25.974;2022-11-20T13:46:43;100608.75;;;13.66;67.15
42169;BME280;27838;43.858;25.974;2022-11-20T13:49:17;100613.94;;;13.69;66.95
42169;BME280;27838;43.858;25.974;2022-11-20T13:51:48;100604.38;;;13.68;67.29
42169;BME280;27838;43.858;25.974;2022-11-20T13:54:47;100597.34;;;13.70;67.40
42169;BME280;27838;43.858;25.974;2022-11-20T14:02:20;100621.72;;;13.75;67.77
42169;BME280;27838;43.858;25.974;2022-11-20T14:04:51;100580.63;;;13.81;67.34